Time;durP1;ratioP1;P1;durP2;ratioP2;P2;SDS_P1;SDS_P2;PMS_P1;PMS_P2;Temp;Humidity;BMP_temperature;BMP_pressure;BME280_temperature;BME280_humidity;BME280_pressure;Samples;Min_cycle;Max_cycle;Signal;HPM_P1;HPM_P2
2021/08/01 00:02:11;;;;;;;3.17;2.08;;;19.00;69.50;;;;;;4969524;28;20030;-63
2021/08/01 00:04:36;;;;;;;4.47;2.10;;;19.00;69.50;;;;;;4978204;28;20133;-63
2021/08/01 00:07:03;;;;;;;4.88;2.45;;;19.00;69.50;;;;;;4979047;28;20097;-62
2021/08/01 00:09:29;;;;;;;3.35;2.20;;;18.90;69.70;;;;;;4979286;28;20037;-63
2021/08/01 00:11:54;;;;;;;3.22;2.13;;;18.90;69.80;;;;;;4971154;28;20046;-62
2021/08/01 00:14:20;;;;;;;3.05;2.22;;;18.80;69.90;;;;;;4975825;28;20043;-62
2021/08/01 00:16:46;;;;;;;5.28;2.42;;;18.70;70.60;;;;;;4977484;28;20111;-62
2021/08/01 00:19:12;;;;;;;3.75;2.17;;;18.60;70.60;;;;;;4972771;28;20050;-62
2021/08/01 00:21:37;;;;;;;2.47;2.10;;;18.50;71.10;;;;;;4975011;28;20430;-62
2021/08/01 00:24:03;;;;;;;2.95;2.05;;;18.50;71.40;;;;;;4975389;28;20093;-63
2021/08/01 00:26:29;;;;;;;2.72;1.98;;;18.50;72.00;;;;;;4982752;28;20061;-63
2021/08/01 00:28:54;;;;;;;3.30;2.22;;;18.50;72.10;;;;;;4980653;28;20038;-63
2021/08/01 00:31:20;;;;;;;3.95;2.30;;;18.50;72.00;;;;;;4978757;28;20031;-63
2021/08/01 00:33:46;;;;;;;2.80;2.08;;;18.50;71.80;;;;;;4985063;28;20449;-63
2021/08/01 00:36:12;;;;;;;3.38;2.17;;;18.50;71.60;;;;;;4972542;28;20042;-63
2021/08/01 00:38:37;;;;;;;3.38;2.58;;;18.40;71.80;;;;;;4976765;28;20030;-62
2021/08/01 00:41:03;;;;;;;3.55;2.30;;;18.30;72.10;;;;;;4979405;28;20038;-62
2021/08/01 00:43:29;;;;;;;4.47;2.40;;;18.30;72.50;;;;;;4978092;28;20026;-63
2021/08/01 00:45:55;;;;;;;3.10;2.42;;;18.30;73.70;;;;;;5000835;28;20038;-63
2021/08/01 00:48:23;;;;;;;3.13;2.50;;;18.30;72.80;;;;;;4974210;28;20050;-63
2021/08/01 00:50:49;;;;;;;3.17;2.35;;;18.30;73.60;;;;;;4974638;28;20045;-62
2021/08/01 00:53:15;;;;;;;4.78;2.10;;;18.20;72.80;;;;;;4984919;28;20027;-62
2021/08/01 00:55:41;;;;;;;3.00;2.70;;;18.20;73.00;;;;;;4988203;28;20043;-62
2021/08/01 00:58:07;;;;;;;2.88;2.50;;;18.10;73.20;;;;;;4979688;28;20034;-62
2021/08/01 01:03:24;;;;;;;2.60;2.38;;;18.00;73.70;;;;;;4976625;28;20174;-63
2021/08/01 01:06:00;;;;;;;5.07;2.65;;;18.00;74.20;;;;;;4984830;28;20085;-63
2021/08/01 01:08:37;;;;;;;3.67;2.20;;;18.00;74.70;;;;;;4981245;28;20090;-63
2021/08/01 01:11:05;;;;;;;4.90;2.72;;;18.00;74.50;;;;;;4978308;28;20464;-63
2021/08/01 01:13:47;;;;;;;3.50;2.35;;;17.90;74.20;;;;;;4979391;28;20513;-63
2021/08/01 01:16:13;;;;;;;3.83;2.40;;;17.90;75.20;;;;;;4983688;28;20069;-63
2021/08/01 01:18:51;;;;;;;3.42;2.70;;;17.80;74.20;;;;;;4977335;28;20040;-63
2021/08/01 01:21:23;;;;;;;3.30;2.53;;;17.80;75.80;;;;;;4981483;28;20093;-62
2021/08/01 01:24:15;;;;;;;4.60;2.70;;;17.70;76.50;;;;;;4981870;28;20589;-63
2021/08/01 01:27:07;;;;;;;4.30;2.45;;;17.70;76.80;;;;;;4981357;28;20536;-62
2021/08/01 01:29:46;;;;;;;3.33;2.60;;;17.60;76.80;;;;;;4984134;28;20038;-63
2021/08/01 01:32:26;;;;;;;3.03;2.42;;;17.50;76.40;;;;;;4974172;28;20062;-63
2021/08/01 01:35:15;;;;;;;4.32;1.98;;;17.50;76.60;;;;;;4985913;28;20074;-63
2021/08/01 01:37:44;;;;;;;3.17;2.20;;;17.40;77.00;;;;;;4983579;28;20035;-63
2021/08/01 01:40:11;;;;;;;3.38;2.40;;;17.40;76.00;;;;;;4981068;28;20509;-63
2021/08/01 01:42:38;;;;;;;4.72;2.28;;;17.40;76.10;;;;;;4980346;28;20054;-63
2021/08/01 01:45:04;;;;;;;2.72;2.28;;;17.40;76.20;;;;;;4980313;28;20068;-63
2021/08/01 01:47:31;;;;;;;3.15;2.25;;;17.40;76.60;;;;;;4976358;28;20034;-63
2021/08/01 01:49:58;;;;;;;3.55;2.25;;;17.30;76.60;;;;;;4978084;28;20105;-63
2021/08/01 01:52:26;;;;;;;3.85;2.42;;;17.30;76.60;;;;;;4986346;28;20100;-62
2021/08/01 01:54:53;;;;;;;3.05;1.98;;;17.30;76.80;;;;;;4982820;28;20046;-63
2021/08/01 01:57:19;;;;;;;3.13;2.00;;;17.20;76.80;;;;;;4979300;28;20042;-63
2021/08/01 01:59:45;;;;;;;4.85;2.10;;;17.20;76.70;;;;;;4981029;28;20034;-63
2021/08/01 02:02:10;;;;;;;3.55;2.28;;;17.20;76.90;;;;;;4993087;28;20027;-63
2021/08/01 02:04:37;;;;;;;4.30;2.30;;;17.10;76.80;;;;;;4986523;28;20509;-63
2021/08/01 02:07:05;;;;;;;2.20;2.00;;;17.10;77.20;;;;;;4979647;28;20035;-63
2021/08/01 02:09:34;;;;;;;5.32;2.22;;;17.10;77.70;;;;;;4981016;28;20045;-63
2021/08/01 02:12:24;;;;;;;5.25;2.33;;;17.10;78.00;;;;;;4979399;28;20038;-63
2021/08/01 02:14:56;;;;;;;3.17;2.28;;;17.10;78.40;;;;;;4978482;28;20041;-63
2021/08/01 02:17:44;;;;;;;3.35;2.55;;;17.10;78.60;;;;;;4984857;28;20042;-63
2021/08/01 02:20:11;;;;;;;5.15;2.47;;;17.10;78.90;;;;;;4979104;28;20038;-62
2021/08/01 02:22:37;;;;;;;2.92;2.20;;;17.10;78.20;;;;;;4986004;28;20039;-62
2021/08/01 02:25:05;;;;;;;4.30;2.40;;;17.10;78.30;;;;;;4982648;28;20383;-62
2021/08/01 02:27:34;;;;;;;3.65;2.33;;;17.10;78.50;;;;;;4984328;28;20042;-63
2021/08/01 02:30:02;;;;;;;3.33;2.38;;;17.20;78.90;;;;;;4979060;28;20510;-63
2021/08/01 02:32:30;;;;;;;4.55;2.42;;;17.30;78.90;;;;;;4983920;28;20073;-63
2021/08/01 02:34:57;;;;;;;4.00;2.70;;;17.30;78.70;;;;;;4968263;28;20210;-63
2021/08/01 02:37:24;;;;;;;3.28;2.42;;;17.40;78.60;;;;;;4994233;28;20070;-62
2021/08/01 02:39:50;;;;;;;3.05;2.75;;;17.40;78.40;;;;;;4982034;28;20043;-63
2021/08/01 02:42:17;;;;;;;22.73;11.93;;;17.50;78.10;;;;;;4983383;28;20089;-63
2021/08/01 02:44:44;;;;;;;28.50;22.13;;;17.50;77.90;;;;;;4979216;28;20049;-62
2021/08/01 02:47:13;;;;;;;47.63;29.33;;;17.50;78.00;;;;;;4976725;28;20047;-63
2021/08/01 02:49:42;;;;;;;22.27;17.00;;;17.60;78.10;;;;;;4972992;28;20963;-63
2021/08/01 02:52:12;;;;;;;10.07;6.28;;;17.60;77.90;;;;;;4981900;28;20073;-63
2021/08/01 02:54:41;;;;;;;3.58;3.30;;;17.60;77.90;;;;;;4981854;28;20031;-62
2021/08/01 02:57:10;;;;;;;4.68;3.60;;;17.70;77.90;;;;;;4978828;28;20049;-63
2021/08/01 02:59:37;;;;;;;4.05;3.33;;;17.70;77.70;;;;;;4974376;28;20065;-63
2021/08/01 03:02:06;;;;;;;4.35;3.45;;;17.70;77.50;;;;;;4978266;28;20045;-62
2021/08/01 03:04:38;;;;;;;3.63;3.33;;;17.80;77.70;;;;;;4976329;28;20514;-63
2021/08/01 03:07:10;;;;;;;4.47;4.07;;;17.80;77.60;;;;;;4980134;28;20043;-63
2021/08/01 03:09:36;;;;;;;3.97;3.25;;;17.80;77.60;;;;;;4976049;28;20039;-63
2021/08/01 03:12:15;;;;;;;5.75;3.78;;;17.80;77.40;;;;;;4974929;28;20485;-61
2021/08/01 03:14:41;;;;;;;5.97;3.53;;;17.80;78.00;;;;;;4981047;28;20039;-63
2021/08/01 03:17:07;;;;;;;4.10;3.58;;;17.80;78.00;;;;;;4979037;28;20045;-62
2021/08/01 03:19:39;;;;;;;4.72;2.97;;;17.80;77.20;;;;;;4975727;28;20074;-62
2021/08/01 03:22:05;;;;;;;5.90;3.42;;;17.80;77.30;;;;;;4975535;28;20034;-62
2021/08/01 03:24:31;;;;;;;3.50;3.20;;;17.80;77.30;;;;;;4979109;28;20057;-63
2021/08/01 03:26:57;;;;;;;3.38;2.80;;;17.80;77.40;;;;;;4977650;28;20038;-62
2021/08/01 03:29:22;;;;;;;3.17;2.88;;;17.70;77.50;;;;;;4978228;28;20030;-62
2021/08/01 03:31:48;;;;;;;4.43;2.95;;;17.70;77.50;;;;;;4973101;28;20093;-63
2021/08/01 03:34:14;;;;;;;3.05;2.55;;;17.70;77.70;;;;;;4978459;28;20532;-62
2021/08/01 03:36:40;;;;;;;5.95;2.97;;;17.60;77.70;;;;;;4981593;28;20035;-63
2021/08/01 03:39:06;;;;;;;4.65;2.63;;;17.60;77.90;;;;;;4975088;28;20033;-62
2021/08/01 03:41:32;;;;;;;2.95;2.42;;;17.50;77.90;;;;;;4976785;28;20406;-62
2021/08/01 03:43:57;;;;;;;3.58;2.22;;;17.50;78.20;;;;;;4982794;28;20034;-63
2021/08/01 03:46:23;;;;;;;2.45;2.08;;;17.40;78.20;;;;;;4994927;28;20616;-63
2021/08/01 03:48:49;;;;;;;2.15;1.95;;;17.30;78.00;;;;;;4975803;28;20046;-63
2021/08/01 03:51:15;;;;;;;2.70;1.70;;;17.20;77.90;;;;;;4973047;28;20097;-62
2021/08/01 03:53:40;;;;;;;3.65;1.80;;;17.10;77.80;;;;;;4977374;28;20034;-62
2021/08/01 03:56:06;;;;;;;2.45;1.90;;;17.10;77.90;;;;;;4976558;28;20046;-62
2021/08/01 03:58:32;;;;;;;3.53;2.05;;;17.00;78.00;;;;;;4979492;28;20030;-62
2021/08/01 04:00:58;;;;;;;2.03;1.83;;;16.90;78.00;;;;;;4978323;28;20514;-62
2021/08/01 04:03:23;;;;;;;3.08;1.55;;;16.80;78.10;;;;;;4976219;28;20124;-62
2021/08/01 04:05:49;;;;;;;4.50;1.80;;;16.70;78.20;;;;;;4974945;28;20034;-63
2021/08/01 04:08:15;;;;;;;3.83;1.80;;;16.70;78.50;;;;;;4978945;28;20039;-62
2021/08/01 04:10:40;;;;;;;1.88;1.48;;;16.60;78.40;;;;;;4979512;28;20042;-62
2021/08/01 04:13:06;;;;;;;3.53;1.75;;;16.60;78.40;;;;;;4974391;28;20105;-63
2021/08/01 04:15:32;;;;;;;2.20;1.77;;;16.60;78.70;;;;;;4980970;28;20030;-63
2021/08/01 04:17:58;;;;;;;1.80;1.70;;;16.60;78.70;;;;;;4978213;28;20059;-62
2021/08/01 04:20:24;;;;;;;1.50;1.40;;;16.50;78.70;;;;;;4974407;28;20035;-63
2021/08/01 04:22:53;;;;;;;1.65;1.30;;;16.50;79.00;;;;;;4977293;28;20061;-63
2021/08/01 04:25:19;;;;;;;1.95;1.67;;;16.50;78.90;;;;;;4983925;28;20046;-63
2021/08/01 04:27:45;;;;;;;3.75;1.50;;;16.50;78.50;;;;;;4980050;28;20030;-62
2021/08/01 04:30:11;;;;;;;2.17;1.60;;;16.50;78.60;;;;;;4982822;28;20037;-62
2021/08/01 04:32:36;;;;;;;3.22;1.40;;;16.50;78.70;;;;;;4976771;28;20150;-62
2021/08/01 04:35:03;;;;;;;1.20;1.10;;;16.50;78.70;;;;;;4974359;28;20049;-63
2021/08/01 04:37:29;;;;;;;1.80;1.30;;;16.50;78.60;;;;;;4973331;28;20057;-63
2021/08/01 04:39:54;;;;;;;1.40;1.30;;;16.50;78.40;;;;;;4987908;28;20034;-63
2021/08/01 04:42:20;;;;;;;2.03;1.38;;;16.50;78.30;;;;;;4984511;28;20035;-63
2021/08/01 04:44:45;;;;;;;2.13;1.42;;;16.50;78.50;;;;;;4982952;28;20157;-62
2021/08/01 04:47:13;;;;;;;2.05;1.45;;;16.40;78.40;;;;;;4992268;28;20036;-63
2021/08/01 04:49:39;;;;;;;1.90;1.40;;;16.40;78.60;;;;;;4995610;28;20468;-63
2021/08/01 04:52:05;;;;;;;1.48;1.38;;;16.40;78.40;;;;;;4983902;28;20726;-62
2021/08/01 04:54:31;;;;;;;1.92;1.25;;;16.40;78.40;;;;;;4983739;28;20034;-63
2021/08/01 04:56:56;;;;;;;2.08;1.45;;;16.40;78.60;;;;;;4989386;28;20039;-63
2021/08/01 04:59:22;;;;;;;1.95;1.30;;;16.40;78.70;;;;;;4984678;28;20534;-63
2021/08/01 05:01:48;;;;;;;6.03;1.30;;;16.40;78.70;;;;;;4980293;28;20035;-63
2021/08/01 05:04:14;;;;;;;4.40;1.38;;;16.50;78.90;;;;;;4977119;28;20145;-63
2021/08/01 05:06:39;;;;;;;1.52;1.30;;;16.50;79.10;;;;;;4977639;28;20037;-62
2021/08/01 05:09:05;;;;;;;1.65;1.23;;;16.50;78.90;;;;;;4981878;28;20027;-63
2021/08/01 05:11:31;;;;;;;1.40;1.30;;;16.60;78.60;;;;;;4979557;28;20058;-63
2021/08/01 05:13:56;;;;;;;1.83;1.20;;;16.60;78.50;;;;;;4984248;28;20055;-63
2021/08/01 05:16:22;;;;;;;1.30;1.20;;;16.60;78.30;;;;;;4977899;28;20046;-63
2021/08/01 05:18:47;;;;;;;1.75;1.25;;;16.70;78.20;;;;;;4979860;28;20632;-63
2021/08/01 05:21:19;;;;;;;3.58;1.45;;;16.70;77.80;;;;;;4976371;28;20022;-63
2021/08/01 05:23:45;;;;;;;1.70;1.58;;;16.80;78.00;;;;;;4981288;28;20113;-63
2021/08/01 05:26:10;;;;;;;4.65;1.30;;;16.70;77.60;;;;;;4985982;28;20142;-62
2021/08/01 05:28:36;;;;;;;2.08;1.35;;;16.80;77.70;;;;;;4981781;28;20100;-63
2021/08/01 05:31:01;;;;;;;2.95;1.60;;;16.80;77.80;;;;;;4985445;28;20034;-63
2021/08/01 05:33:27;;;;;;;1.70;1.50;;;16.80;77.90;;;;;;4980243;28;20045;-63
2021/08/01 05:35:53;;;;;;;1.80;1.70;;;16.80;77.90;;;;;;4982568;28;20039;-63
2021/08/01 05:38:18;;;;;;;3.15;1.45;;;16.80;77.90;;;;;;4981414;28;20048;-63
2021/08/01 05:40:44;;;;;;;1.63;1.42;;;16.80;78.90;;;;;;4974929;28;20379;-63
2021/08/01 05:43:10;;;;;;;1.55;1.45;;;16.90;78.10;;;;;;4975817;28;20058;-63
2021/08/01 05:45:35;;;;;;;1.40;1.30;;;16.90;78.00;;;;;;4980170;28;20033;-63
2021/08/01 05:48:01;;;;;;;1.55;1.42;;;16.90;77.70;;;;;;4981000;28;20031;-63
2021/08/01 05:50:27;;;;;;;2.05;1.45;;;17.00;77.70;;;;;;4994063;28;20062;-63
2021/08/01 05:52:52;;;;;;;4.43;1.58;;;17.00;77.60;;;;;;4972987;28;20444;-61
2021/08/01 05:55:18;;;;;;;2.45;1.83;;;17.00;77.50;;;;;;4980182;28;20034;-63
2021/08/01 05:57:44;;;;;;;2.60;1.30;;;17.10;77.50;;;;;;4976652;28;20045;-63
2021/08/01 06:00:10;;;;;;;1.98;1.30;;;17.10;77.30;;;;;;4975999;28;20038;-62
2021/08/01 06:02:35;;;;;;;1.65;1.20;;;17.10;77.20;;;;;;4971688;28;20092;-63
2021/08/01 06:05:01;;;;;;;1.40;1.30;;;17.20;77.30;;;;;;4974111;28;20046;-64
2021/08/01 06:07:27;;;;;;;1.35;1.25;;;17.20;77.20;;;;;;4974367;28;20058;-62
2021/08/01 06:09:52;;;;;;;2.03;1.35;;;17.20;77.00;;;;;;4974784;28;20379;-63
2021/08/01 06:12:18;;;;;;;1.92;1.35;;;17.20;77.00;;;;;;4971458;28;20038;-63
2021/08/01 06:14:48;;;;;;;3.28;1.20;;;17.20;77.00;;;;;;4984542;28;20477;-63
2021/08/01 06:17:14;;;;;;;5.05;1.55;;;17.20;77.20;;;;;;4982460;28;20049;-63
2021/08/01 06:19:40;;;;;;;3.10;1.50;;;17.30;77.20;;;;;;4979679;28;20038;-63
2021/08/01 06:22:06;;;;;;;1.40;1.30;;;17.30;77.20;;;;;;4974527;28;20623;-63
2021/08/01 06:24:31;;;;;;;2.20;1.48;;;17.30;77.20;;;;;;4982454;28;20078;-63
2021/08/01 06:26:57;;;;;;;1.63;1.27;;;17.30;77.00;;;;;;4980403;28;20528;-63
2021/08/01 06:29:22;;;;;;;2.28;1.60;;;17.30;77.10;;;;;;4982319;28;20034;-63
2021/08/01 06:31:48;;;;;;;1.73;1.63;;;17.30;77.10;;;;;;4980622;28;20069;-63
2021/08/01 06:34:14;;;;;;;2.92;1.40;;;17.30;77.30;;;;;;4975658;28;20043;-63
2021/08/01 06:36:39;;;;;;;3.53;1.63;;;17.30;77.00;;;;;;4981329;28;20045;-63
2021/08/01 06:39:07;;;;;;;1.55;1.45;;;17.30;77.00;;;;;;4975899;28;20031;-62
2021/08/01 06:41:34;;;;;;;2.00;1.70;;;17.30;76.80;;;;;;4976242;28;20549;-63
2021/08/01 06:44:00;;;;;;;3.03;1.70;;;17.30;76.80;;;;;;4984112;28;20030;-63
2021/08/01 06:46:25;;;;;;;2.33;1.70;;;17.30;77.00;;;;;;4980482;28;20045;-63
2021/08/01 06:48:51;;;;;;;1.60;1.48;;;17.30;77.00;;;;;;4982930;28;20034;-64
2021/08/01 06:51:17;;;;;;;1.95;1.40;;;17.30;77.00;;;;;;4977377;28;20034;-63
2021/08/01 06:53:42;;;;;;;1.48;1.20;;;17.30;77.80;;;;;;4979681;28;20039;-63
2021/08/01 06:56:08;;;;;;;1.50;1.38;;;17.30;77.00;;;;;;4977791;28;20042;-63
2021/08/01 06:58:33;;;;;;;1.75;1.30;;;17.30;76.80;;;;;;4984308;28;20050;-63
2021/08/01 07:00:59;;;;;;;2.78;1.65;;;17.30;76.80;;;;;;4981208;28;20561;-63
2021/08/01 07:03:28;;;;;;;2.35;1.50;;;17.40;76.80;;;;;;4977627;28;20556;-63
2021/08/01 07:05:54;;;;;;;3.50;1.52;;;17.40;77.10;;;;;;4984204;28;20096;-63
2021/08/01 07:08:20;;;;;;;1.95;1.33;;;17.40;77.00;;;;;;4983056;28;20114;-63
2021/08/01 07:10:46;;;;;;;2.70;1.40;;;17.40;76.90;;;;;;4974531;28;20134;-64
2021/08/01 07:13:11;;;;;;;8.52;1.80;;;17.40;76.80;;;;;;4986473;28;20040;-63
2021/08/01 07:15:38;;;;;;;1.67;1.50;;;17.40;76.70;;;;;;4977737;28;20667;-63
2021/08/01 07:18:05;;;;;;;2.42;1.75;;;17.50;77.00;;;;;;4983470;28;20062;-63
2021/08/01 07:20:31;;;;;;;2.22;1.77;;;17.40;77.30;;;;;;4975128;28;20822;-63
2021/08/01 07:22:57;;;;;;;1.85;1.40;;;17.40;77.30;;;;;;4972098;28;20117;-62
2021/08/01 07:25:23;;;;;;;2.95;1.50;;;17.40;77.30;;;;;;4975905;28;20599;-63
2021/08/01 07:27:50;;;;;;;2.47;1.67;;;17.40;77.30;;;;;;4971390;28;20034;-63
2021/08/01 07:30:16;;;;;;;2.40;1.70;;;17.40;77.30;;;;;;4978025;28;20526;-63
2021/08/01 07:32:42;;;;;;;2.75;1.40;;;17.40;77.10;;;;;;4979009;28;20137;-63
2021/08/01 07:35:08;;;;;;;2.45;1.52;;;17.40;77.20;;;;;;4974956;28;20043;-62
2021/08/01 07:37:34;;;;;;;2.28;1.70;;;17.40;77.10;;;;;;4972248;28;20054;-62
2021/08/01 07:40:00;;;;;;;2.28;1.60;;;17.30;77.00;;;;;;4974509;28;20031;-63
2021/08/01 07:42:26;;;;;;;2.45;1.50;;;17.40;77.00;;;;;;4974811;28;20041;-63
2021/08/01 07:44:54;;;;;;;1.50;1.40;;;17.40;76.80;;;;;;4970931;28;20035;-62
2021/08/01 07:47:22;;;;;;;1.70;1.40;;;17.30;76.60;;;;;;4976489;28;20047;-62
2021/08/01 07:49:50;;;;;;;2.17;1.30;;;17.40;77.00;;;;;;4976851;28;20121;-62
2021/08/01 07:52:16;;;;;;;1.85;1.50;;;17.30;76.80;;;;;;4975138;28;20073;-63
2021/08/01 07:54:43;;;;;;;2.65;1.80;;;17.40;77.20;;;;;;4968045;28;20038;-63
2021/08/01 07:57:28;;;;;;;3.05;1.80;;;17.40;77.20;;;;;;4955318;28;20070;-63
2021/08/01 07:59:55;;;;;;;1.90;1.70;;;17.40;77.30;;;;;;4952945;28;20106;-64
2021/08/01 08:02:22;;;;;;;2.25;1.65;;;17.40;77.20;;;;;;4955008;28;20042;-64
2021/08/01 08:04:48;;;;;;;2.10;1.88;;;17.40;77.40;;;;;;4959939;28;20034;-64
2021/08/01 08:07:14;;;;;;;2.75;1.85;;;17.50;77.40;;;;;;4946545;28;20047;-64
2021/08/01 08:09:40;;;;;;;2.30;1.73;;;17.50;77.20;;;;;;4951298;28;20054;-63
2021/08/01 08:12:06;;;;;;;3.13;1.98;;;17.50;77.40;;;;;;4947049;28;20823;-64
2021/08/01 08:14:32;;;;;;;2.65;2.00;;;17.50;77.20;;;;;;4955732;28;20041;-64
2021/08/01 08:16:58;;;;;;;1.83;1.73;;;17.50;77.60;;;;;;4953862;28;20035;-63
2021/08/01 08:19:24;;;;;;;2.72;1.73;;;17.50;77.80;;;;;;4961522;28;20053;-65
2021/08/01 08:21:50;;;;;;;2.05;1.75;;;17.60;77.80;;;;;;4954241;28;20597;-64
2021/08/01 08:24:16;;;;;;;2.53;1.90;;;17.60;77.70;;;;;;4958591;28;20051;-64
2021/08/01 08:26:41;;;;;;;4.50;1.95;;;17.60;77.60;;;;;;4951342;28;20035;-64
2021/08/01 08:29:07;;;;;;;2.15;1.98;;;17.60;77.90;;;;;;4956108;28;20466;-64
2021/08/01 08:31:33;;;;;;;2.33;1.90;;;17.70;78.10;;;;;;4951499;28;20050;-64
2021/08/01 08:33:58;;;;;;;2.47;1.95;;;17.70;78.00;;;;;;4954172;28;20077;-65
2021/08/01 08:36:24;;;;;;;2.55;2.08;;;17.70;78.10;;;;;;4967827;28;20449;-63
2021/08/01 08:38:50;;;;;;;2.22;2.03;;;17.70;77.90;;;;;;4949352;28;20039;-63
2021/08/01 08:41:16;;;;;;;2.88;2.17;;;17.60;77.90;;;;;;4953028;28;20995;-64
2021/08/01 08:43:43;;;;;;;3.28;2.00;;;17.60;78.40;;;;;;4953083;28;20082;-64
2021/08/01 08:46:10;;;;;;;2.33;2.13;;;17.60;79.40;;;;;;4955756;28;20050;-64
2021/08/01 08:48:38;;;;;;;2.60;2.40;;;17.50;78.60;;;;;;4956588;28;20065;-63
2021/08/01 08:51:08;;;;;;;2.50;2.28;;;17.60;78.70;;;;;;4962589;28;20498;-64
2021/08/01 08:53:39;;;;;;;2.65;2.35;;;17.60;79.30;;;;;;4955165;28;22517;-64
2021/08/01 08:56:07;;;;;;;2.67;2.47;;;17.60;79.20;;;;;;4954534;28;20597;-64
2021/08/01 08:58:33;;;;;;;3.15;2.40;;;17.60;79.10;;;;;;4952754;28;20779;-64
2021/08/01 09:00:59;;;;;;;3.50;2.58;;;17.60;78.60;;;;;;4953324;28;20042;-64
2021/08/01 09:03:25;;;;;;;2.38;2.17;;;17.60;78.40;;;;;;4970425;28;20027;-65
2021/08/01 09:05:55;;;;;;;2.88;2.63;;;17.60;78.50;;;;;;4960270;28;20502;-64
2021/08/01 09:08:20;;;;;;;3.17;2.33;;;17.60;78.30;;;;;;4956130;28;20043;-64
2021/08/01 09:10:46;;;;;;;2.58;2.35;;;17.70;78.60;;;;;;4958164;28;20866;-64
2021/08/01 09:13:12;;;;;;;2.63;2.42;;;17.70;78.70;;;;;;4957039;28;20026;-64
2021/08/01 09:15:37;;;;;;;3.60;2.35;;;17.70;78.70;;;;;;4956068;28;20026;-62
2021/08/01 09:18:12;;;;;;;5.03;2.63;;;17.70;78.70;;;;;;4956106;28;20155;-64
2021/08/01 09:20:49;;;;;;;3.17;2.87;;;17.80;79.10;;;;;;4956881;28;20438;-64
2021/08/01 09:23:15;;;;;;;3.55;2.75;;;17.80;79.30;;;;;;4962883;28;20754;-63
2021/08/01 09:25:43;;;;;;;2.80;2.53;;;17.90;78.90;;;;;;4957336;28;20131;-64
2021/08/01 09:28:16;;;;;;;3.00;2.70;;;17.90;78.90;;;;;;4959425;28;20049;-64
2021/08/01 09:30:56;;;;;;;3.65;2.88;;;17.90;78.70;;;;;;4980125;28;20038;-64
2021/08/01 09:33:42;;;;;;;3.55;2.83;;;17.90;78.90;;;;;;4980587;28;20042;-64
2021/08/01 09:36:18;;;;;;;3.22;3.00;;;18.00;78.70;;;;;;4957534;28;20034;-64
2021/08/01 09:38:55;;;;;;;4.13;2.85;;;18.00;78.70;;;;;;4958177;28;20083;-64
2021/08/01 09:41:33;;;;;;;3.38;2.72;;;18.00;79.10;;;;;;4957847;28;20039;-64
2021/08/01 09:44:01;;;;;;;3.20;2.90;;;18.00;79.60;;;;;;4956183;28;20035;-63
2021/08/01 09:46:43;;;;;;;2.85;2.53;;;18.00;78.60;;;;;;4961127;28;20142;-64
2021/08/01 09:49:10;;;;;;;2.80;2.60;;;18.00;79.10;;;;;;4955434;28;20039;-64
2021/08/01 09:51:44;;;;;;;3.00;2.70;;;18.10;79.00;;;;;;4956969;28;20395;-64
2021/08/01 09:54:11;;;;;;;2.73;2.53;;;18.10;79.00;;;;;;4988582;28;20031;-64
2021/08/01 09:56:38;;;;;;;2.75;2.55;;;18.10;78.50;;;;;;4992741;28;20046;-64
2021/08/01 09:59:06;;;;;;;2.97;2.72;;;18.10;77.90;;;;;;4981635;28;20041;-64
2021/08/01 10:01:48;;;;;;;2.97;2.58;;;18.20;77.80;;;;;;4976962;28;20042;-64
2021/08/01 10:04:43;;;;;;;2.95;2.63;;;18.20;77.50;;;;;;4972659;28;20065;-64
2021/08/01 10:07:18;;;;;;;2.47;2.28;;;18.30;77.90;;;;;;4982384;28;20566;-64
2021/08/01 10:09:45;;;;;;;;;;;18.30;77.90;;;;;;4976610;28;20414;-64
2021/08/01 10:12:12;;;;;;;2.42;2.22;;;18.30;77.50;;;;;;4980041;28;19920;-64
2021/08/01 10:14:38;;;;;;;2.67;2.35;;;18.30;77.30;;;;;;4983512;28;20035;-64
2021/08/01 10:17:05;;;;;;;3.28;2.28;;;18.40;77.20;;;;;;4977347;28;20417;-65
2021/08/01 10:19:31;;;;;;;2.67;2.45;;;18.40;77.50;;;;;;4988342;28;20049;-64
2021/08/01 10:21:59;;;;;;;2.70;2.45;;;18.40;77.10;;;;;;4987675;28;20517;-64
2021/08/01 10:24:37;;;;;;;2.65;2.45;;;18.40;77.40;;;;;;4986104;28;20031;-64
2021/08/01 10:27:05;;;;;;;1.70;1.60;;;18.40;77.00;;;;;;4987508;28;20560;-64
2021/08/01 10:29:47;;;;;;;2.05;1.90;;;18.40;76.20;;;;;;4987635;28;20493;-64
2021/08/01 10:32:14;;;;;;;2.38;2.17;;;18.40;76.70;;;;;;4984718;28;20042;-65
2021/08/01 10:34:47;;;;;;;2.50;2.30;;;18.30;76.30;;;;;;4985793;28;20030;-65
2021/08/01 10:37:45;;;;;;;2.00;1.90;;;18.30;76.20;;;;;;4999282;28;20066;-65
2021/08/01 10:40:15;;;;;;;2.38;2.22;;;18.30;75.80;;;;;;4988002;28;20041;-65
2021/08/01 10:42:42;;;;;;;2.13;2.03;;;18.30;76.60;;;;;;4987054;28;20045;-65
2021/08/01 10:45:09;;;;;;;2.53;2.33;;;18.30;77.00;;;;;;4989280;28;20402;-65
2021/08/01 10:47:37;;;;;;;2.83;2.47;;;18.40;77.30;;;;;;4989333;28;20101;-65
2021/08/01 10:50:07;;;;;;;2.92;2.40;;;18.50;77.90;;;;;;4988813;28;20548;-65
2021/08/01 10:52:35;;;;;;;2.33;2.08;;;18.50;78.40;;;;;;4977086;28;20037;-64
2021/08/01 10:55:03;;;;;;;1.98;1.83;;;18.60;78.10;;;;;;4975980;28;20041;-65
2021/08/01 10:57:30;;;;;;;2.97;2.13;;;18.70;77.60;;;;;;5000658;28;20073;-65
2021/08/01 10:59:59;;;;;;;2.30;1.98;;;18.70;77.20;;;;;;4985316;28;20042;-65
2021/08/01 11:02:28;;;;;;;3.90;2.10;;;18.80;77.50;;;;;;4991436;28;20489;-65
2021/08/01 11:04:55;;;;;;;2.42;2.22;;;18.80;77.40;;;;;;4987044;28;20054;-65
2021/08/01 11:07:27;;;;;;;2.88;2.13;;;18.90;77.60;;;;;;4983918;28;20514;-65
2021/08/01 11:10:17;;;;;;;2.15;1.95;;;18.90;77.30;;;;;;4984885;28;20047;-65
2021/08/01 11:12:45;;;;;;;2.10;1.92;;;19.00;77.20;;;;;;4981464;28;20039;-65
2021/08/01 11:15:15;;;;;;;2.85;1.60;;;19.10;78.00;;;;;;4984790;28;20030;-65
2021/08/01 11:17:46;;;;;;;2.00;1.90;;;19.10;77.10;;;;;;4985248;28;20042;-65
2021/08/01 11:20:23;;;;;;;3.00;1.85;;;19.20;77.00;;;;;;4983457;28;20049;-65
2021/08/01 11:22:50;;;;;;;1.85;1.75;;;19.20;77.10;;;;;;4983632;28;20032;-66
2021/08/01 11:25:24;;;;;;;1.92;1.70;;;19.30;76.70;;;;;;4998802;28;20407;-65
2021/08/01 11:28:17;;;;;;;3.13;1.75;;;19.30;76.60;;;;;;4985569;28;20037;-65
2021/08/01 11:30:52;;;;;;;2.00;1.80;;;19.40;76.50;;;;;;4984439;28;20508;-66
2021/08/01 11:33:38;;;;;;;2.05;1.83;;;19.40;75.60;;;;;;4982810;28;20034;-65
2021/08/01 11:36:12;;;;;;;1.70;1.55;;;19.50;76.40;;;;;;4982788;28;20048;-65
2021/08/01 11:38:53;;;;;;;1.90;1.80;;;19.50;75.80;;;;;;4984095;28;20039;-65
2021/08/01 11:41:40;;;;;;;1.83;1.52;;;19.60;75.60;;;;;;4985711;28;20039;-65
2021/08/01 11:44:11;;;;;;;1.48;1.30;;;19.70;74.00;;;;;;4983832;28;20023;-65
2021/08/01 11:46:55;;;;;;;1.67;1.52;;;19.70;74.90;;;;;;4992208;28;20112;-65
2021/08/01 11:49:48;;;;;;;1.80;1.70;;;19.80;73.90;;;;;;4984573;28;20125;-65
2021/08/01 11:52:32;;;;;;;1.58;1.45;;;19.80;73.90;;;;;;4978016;28;20068;-65
2021/08/01 11:54:58;;;;;;;3.22;1.67;;;19.80;73.00;;;;;;4977892;28;20505;-64
2021/08/01 11:57:31;;;;;;;1.50;1.40;;;19.90;72.60;;;;;;4985584;28;20042;-65
2021/08/01 11:59:57;;;;;;;1.73;1.50;;;19.90;73.10;;;;;;4998847;28;20030;-65
2021/08/01 12:02:24;;;;;;;1.75;1.60;;;19.90;73.20;;;;;;4982537;28;20100;-62
2021/08/01 12:05:00;;;;;;;1.40;1.30;;;20.00;73.30;;;;;;4982930;28;20045;-65
2021/08/01 12:07:40;;;;;;;2.03;1.40;;;20.00;73.20;;;;;;4975337;28;20034;-66
2021/08/01 12:10:17;;;;;;;1.60;1.50;;;20.10;73.40;;;;;;4978579;28;20070;-66
2021/08/01 12:12:42;;;;;;;1.92;1.27;;;20.10;73.00;;;;;;4983040;28;20545;-65
2021/08/01 12:15:09;;;;;;;1.88;1.70;;;20.20;72.80;;;;;;4986135;28;20034;-66
2021/08/01 12:17:35;;;;;;;1.50;1.35;;;20.20;72.00;;;;;;4984312;28;20047;-65
2021/08/01 12:20:01;;;;;;;1.70;1.60;;;20.30;71.80;;;;;;4984148;28;20042;-66
2021/08/01 12:22:27;;;;;;;1.33;1.23;;;20.30;72.30;;;;;;4981804;28;20035;-66
2021/08/01 12:24:56;;;;;;;1.60;1.50;;;20.30;72.20;;;;;;4979055;28;20506;-66
2021/08/01 12:27:26;;;;;;;2.22;1.25;;;20.40;71.60;;;;;;4977535;28;20042;-66
2021/08/01 12:29:53;;;;;;;1.40;1.30;;;20.50;70.90;;;;;;4984762;28;20030;-66
2021/08/01 12:32:19;;;;;;;1.20;1.10;;;20.50;71.20;;;;;;4983656;28;20129;-66
2021/08/01 12:34:45;;;;;;;1.55;1.30;;;20.50;70.60;;;;;;4982858;28;20704;-66
2021/08/01 12:37:12;;;;;;;1.40;1.08;;;20.50;70.70;;;;;;4982026;28;20414;-65
2021/08/01 12:40:03;;;;;;;1.50;1.17;;;20.60;70.50;;;;;;4982444;28;21454;-66
2021/08/01 12:42:29;;;;;;;1.20;1.08;;;20.60;70.00;;;;;;4988637;28;20034;-66
2021/08/01 12:45:00;;;;;;;1.40;1.20;;;20.70;69.80;;;;;;4988491;28;20712;-66
2021/08/01 12:47:28;;;;;;;1.85;1.30;;;20.60;69.90;;;;;;4987081;28;20039;-66
2021/08/01 12:49:55;;;;;;;1.25;1.00;;;20.70;69.80;;;;;;4986713;28;20041;-66
2021/08/01 12:52:26;;;;;;;2.47;1.27;;;20.80;69.70;;;;;;4987763;28;20050;-66
2021/08/01 12:54:54;;;;;;;1.95;1.10;;;20.80;68.80;;;;;;4987971;28;20128;-66
2021/08/01 12:57:21;;;;;;;1.58;1.00;;;20.90;68.00;;;;;;4988244;28;20065;-66
2021/08/01 13:00:07;;;;;;;1.25;0.98;;;20.90;67.60;;;;;;4984922;28;20405;-66